sensor_id;sensor_type;location;lat;lon;timestamp;P1;durP1;ratioP1;P2;durP2;ratioP2
45688;SDS011;31400;48.132;20.872;2023-06-26T00:00:32;5.47;;;3.97;;
45688;SDS011;31400;48.132;20.872;2023-06-26T00:05:24;8.85;;;4.20;;
45688;SDS011;31400;48.132;20.872;2023-06-26T00:07:52;5.72;;;4.35;;
45688;SDS011;31400;48.132;20.872;2023-06-26T00:10:19;13.73;;;4.20;;
45688;SDS011;31400;48.132;20.872;2023-06-26T00:12:45;12.57;;;3.75;;
45688;SDS011;31400;48.132;20.872;2023-06-26T00:15:11;5.40;;;3.97;;
45688;SDS011;31400;48.132;20.872;2023-06-26T00:17:37;9.60;;;4.03;;
45688;SDS011;31400;48.132;20.872;2023-06-26T00:22:30;9.27;;;4.57;;
45688;SDS011;31400;48.132;20.872;2023-06-26T00:27:22;8.23;;;4.72;;
45688;SDS011;31400;48.132;20.872;2023-06-26T00:29:48;5.97;;;4.07;;
45688;SDS011;31400;48.132;20.872;2023-06-26T00:34:41;15.18;;;4.88;;
45688;SDS011;31400;48.132;20.872;2023-06-26T00:39:32;10.43;;;4.47;;
45688;SDS011;31400;48.132;20.872;2023-06-26T00:44:25;8.32;;;4.32;;
45688;SDS011;31400;48.132;20.872;2023-06-26T00:46:51;7.90;;;4.45;;
45688;SDS011;31400;48.132;20.872;2023-06-26T00:49:17;9.25;;;4.50;;
45688;SDS011;31400;48.132;20.872;2023-06-26T00:54:09;5.63;;;3.97;;
45688;SDS011;31400;48.132;20.872;2023-06-26T00:56:35;7.18;;;3.88;;
45688;SDS011;31400;48.132;20.872;2023-06-26T00:59:01;5.50;;;4.40;;
45688;SDS011;31400;48.132;20.872;2023-06-26T01:01:27;5.80;;;4.07;;
45688;SDS011;31400;48.132;20.872;2023-06-26T01:03:54;7.20;;;3.95;;
45688;SDS011;31400;48.132;20.872;2023-06-26T01:06:22;11.70;;;3.95;;
45688;SDS011;31400;48.132;20.872;2023-06-26T01:08:49;8.52;;;4.50;;
45688;SDS011;31400;48.132;20.872;2023-06-26T01:11:16;8.35;;;4.35;;
45688;SDS011;31400;48.132;20.872;2023-06-26T01:16:10;10.05;;;3.92;;
45688;SDS011;31400;48.132;20.872;2023-06-26T01:18:37;8.27;;;4.93;;
45688;SDS011;31400;48.132;20.872;2023-06-26T01:21:08;10.65;;;4.00;;
45688;SDS011;31400;48.132;20.872;2023-06-26T01:23:37;16.17;;;4.30;;
45688;SDS011;31400;48.132;20.872;2023-06-26T01:26:15;10.68;;;4.53;;
45688;SDS011;31400;48.132;20.872;2023-06-26T01:28:42;13.25;;;4.72;;
45688;SDS011;31400;48.132;20.872;2023-06-26T01:31:09;8.93;;;4.38;;
45688;SDS011;31400;48.132;20.872;2023-06-26T01:33:36;6.28;;;4.68;;
45688;SDS011;31400;48.132;20.872;2023-06-26T01:36:02;17.40;;;4.47;;
45688;SDS011;31400;48.132;20.872;2023-06-26T01:38:31;8.20;;;4.57;;
45688;SDS011;31400;48.132;20.872;2023-06-26T01:40:57;7.75;;;4.70;;
45688;SDS011;31400;48.132;20.872;2023-06-26T01:43:26;10.73;;;4.53;;
45688;SDS011;31400;48.132;20.872;2023-06-26T01:45:54;8.05;;;4.82;;
45688;SDS011;31400;48.132;20.872;2023-06-26T01:48:26;7.70;;;4.53;;
45688;SDS011;31400;48.132;20.872;2023-06-26T01:50:53;9.43;;;4.57;;
45688;SDS011;31400;48.132;20.872;2023-06-26T01:53:21;10.23;;;4.80;;
45688;SDS011;31400;48.132;20.872;2023-06-26T01:55:51;7.93;;;4.68;;
45688;SDS011;31400;48.132;20.872;2023-06-26T01:58:22;8.60;;;5.30;;
45688;SDS011;31400;48.132;20.872;2023-06-26T02:00:49;7.70;;;4.25;;
45688;SDS011;31400;48.132;20.872;2023-06-26T02:03:15;8.25;;;4.32;;
45688;SDS011;31400;48.132;20.872;2023-06-26T02:08:08;8.80;;;4.93;;
45688;SDS011;31400;48.132;20.872;2023-06-26T02:10:35;14.63;;;4.80;;
45688;SDS011;31400;48.132;20.872;2023-06-26T02:15:27;7.35;;;4.72;;
45688;SDS011;31400;48.132;20.872;2023-06-26T02:20:19;9.85;;;4.07;;
45688;SDS011;31400;48.132;20.872;2023-06-26T02:22:45;6.65;;;3.80;;
45688;SDS011;31400;48.132;20.872;2023-06-26T02:25:17;8.18;;;4.60;;
45688;SDS011;31400;48.132;20.872;2023-06-26T02:27:43;6.75;;;4.43;;
45688;SDS011;31400;48.132;20.872;2023-06-26T02:30:09;15.73;;;4.50;;
45688;SDS011;31400;48.132;20.872;2023-06-26T02:32:36;7.85;;;5.32;;
45688;SDS011;31400;48.132;20.872;2023-06-26T02:37:28;7.63;;;4.85;;
45688;SDS011;31400;48.132;20.872;2023-06-26T02:39:54;7.22;;;4.20;;
45688;SDS011;31400;48.132;20.872;2023-06-26T02:44:46;11.20;;;5.45;;
45688;SDS011;31400;48.132;20.872;2023-06-26T02:47:12;10.13;;;5.63;;
45688;SDS011;31400;48.132;20.872;2023-06-26T02:49:38;10.70;;;6.00;;
45688;SDS011;31400;48.132;20.872;2023-06-26T02:52:05;7.85;;;4.30;;
45688;SDS011;31400;48.132;20.872;2023-06-26T02:56:57;6.45;;;4.75;;
45688;SDS011;31400;48.132;20.872;2023-06-26T02:59:24;10.57;;;4.35;;
45688;SDS011;31400;48.132;20.872;2023-06-26T03:01:51;8.65;;;4.50;;
45688;SDS011;31400;48.132;20.872;2023-06-26T03:04:17;8.02;;;4.75;;
45688;SDS011;31400;48.132;20.872;2023-06-26T03:09:09;8.13;;;4.28;;
45688;SDS011;31400;48.132;20.872;2023-06-26T03:11:35;8.32;;;4.72;;
45688;SDS011;31400;48.132;20.872;2023-06-26T03:16:27;6.07;;;4.32;;
45688;SDS011;31400;48.132;20.872;2023-06-26T03:18:53;7.28;;;5.15;;
45688;SDS011;31400;48.132;20.872;2023-06-26T03:21:19;10.02;;;4.80;;
45688;SDS011;31400;48.132;20.872;2023-06-26T03:23:45;8.57;;;4.53;;
45688;SDS011;31400;48.132;20.872;2023-06-26T03:26:11;8.55;;;4.78;;
45688;SDS011;31400;48.132;20.872;2023-06-26T03:28:39;6.30;;;4.13;;
45688;SDS011;31400;48.132;20.872;2023-06-26T03:31:05;5.95;;;4.75;;
45688;SDS011;31400;48.132;20.872;2023-06-26T03:33:31;7.50;;;4.25;;
45688;SDS011;31400;48.132;20.872;2023-06-26T03:38:24;13.07;;;5.28;;
45688;SDS011;31400;48.132;20.872;2023-06-26T03:40:51;6.78;;;4.63;;
45688;SDS011;31400;48.132;20.872;2023-06-26T03:43:17;11.48;;;4.68;;
45688;SDS011;31400;48.132;20.872;2023-06-26T03:45:43;7.53;;;4.57;;
45688;SDS011;31400;48.132;20.872;2023-06-26T03:48:10;15.10;;;4.80;;
45688;SDS011;31400;48.132;20.872;2023-06-26T03:50:36;10.93;;;4.43;;
45688;SDS011;31400;48.132;20.872;2023-06-26T03:55:28;11.55;;;4.53;;
45688;SDS011;31400;48.132;20.872;2023-06-26T03:57:54;12.73;;;4.90;;
45688;SDS011;31400;48.132;20.872;2023-06-26T04:00:20;12.98;;;4.50;;
45688;SDS011;31400;48.132;20.872;2023-06-26T04:02:46;7.50;;;4.25;;
45688;SDS011;31400;48.132;20.872;2023-06-26T04:05:12;13.85;;;4.95;;
45688;SDS011;31400;48.132;20.872;2023-06-26T04:07:39;6.57;;;4.57;;
45688;SDS011;31400;48.132;20.872;2023-06-26T04:10:06;6.93;;;4.55;;
45688;SDS011;31400;48.132;20.872;2023-06-26T04:12:32;13.25;;;4.93;;
45688;SDS011;31400;48.132;20.872;2023-06-26T04:17:26;8.20;;;4.38;;
45688;SDS011;31400;48.132;20.872;2023-06-26T04:19:52;7.40;;;4.57;;
45688;SDS011;31400;48.132;20.872;2023-06-26T04:24:44;5.93;;;4.32;;
45688;SDS011;31400;48.132;20.872;2023-06-26T04:27:11;6.65;;;3.78;;
45688;SDS011;31400;48.132;20.872;2023-06-26T04:29:38;9.05;;;4.93;;
45688;SDS011;31400;48.132;20.872;2023-06-26T04:34:33;7.00;;;4.53;;
45688;SDS011;31400;48.132;20.872;2023-06-26T04:37:01;6.30;;;4.18;;
45688;SDS011;31400;48.132;20.872;2023-06-26T04:39:29;11.55;;;4.43;;
45688;SDS011;31400;48.132;20.872;2023-06-26T04:41:55;10.15;;;4.40;;
45688;SDS011;31400;48.132;20.872;2023-06-26T04:46:47;9.38;;;5.03;;
45688;SDS011;31400;48.132;20.872;2023-06-26T04:49:16;6.97;;;4.28;;
45688;SDS011;31400;48.132;20.872;2023-06-26T04:51:43;11.13;;;4.68;;
45688;SDS011;31400;48.132;20.872;2023-06-26T04:56:35;6.50;;;4.20;;
45688;SDS011;31400;48.132;20.872;2023-06-26T04:59:02;9.27;;;5.32;;
45688;SDS011;31400;48.132;20.872;2023-06-26T05:01:28;10.10;;;4.78;;
45688;SDS011;31400;48.132;20.872;2023-06-26T05:04:00;5.43;;;4.25;;
45688;SDS011;31400;48.132;20.872;2023-06-26T05:06:29;9.05;;;5.05;;
45688;SDS011;31400;48.132;20.872;2023-06-26T05:08:55;6.57;;;5.07;;
45688;SDS011;31400;48.132;20.872;2023-06-26T05:11:21;8.48;;;5.38;;
45688;SDS011;31400;48.132;20.872;2023-06-26T05:13:48;7.03;;;4.28;;
45688;SDS011;31400;48.132;20.872;2023-06-26T05:16:14;8.55;;;4.70;;
45688;SDS011;31400;48.132;20.872;2023-06-26T05:21:06;8.32;;;5.63;;
45688;SDS011;31400;48.132;20.872;2023-06-26T05:23:33;9.98;;;4.53;;
45688;SDS011;31400;48.132;20.872;2023-06-26T05:26:02;8.15;;;4.72;;
45688;SDS011;31400;48.132;20.872;2023-06-26T05:28:29;8.30;;;4.63;;
45688;SDS011;31400;48.132;20.872;2023-06-26T05:30:58;8.82;;;5.35;;
45688;SDS011;31400;48.132;20.872;2023-06-26T05:33:27;7.80;;;4.85;;
45688;SDS011;31400;48.132;20.872;2023-06-26T05:35:57;7.20;;;4.82;;
45688;SDS011;31400;48.132;20.872;2023-06-26T05:38:25;10.93;;;5.85;;
45688;SDS011;31400;48.132;20.872;2023-06-26T05:40:51;12.05;;;5.25;;
45688;SDS011;31400;48.132;20.872;2023-06-26T05:43:17;5.45;;;4.50;;
45688;SDS011;31400;48.132;20.872;2023-06-26T05:45:46;12.30;;;5.15;;
45688;SDS011;31400;48.132;20.872;2023-06-26T05:48:12;14.18;;;4.75;;
45688;SDS011;31400;48.132;20.872;2023-06-26T05:50:38;8.25;;;5.05;;
45688;SDS011;31400;48.132;20.872;2023-06-26T05:53:07;12.55;;;4.93;;
45688;SDS011;31400;48.132;20.872;2023-06-26T05:55:33;6.57;;;4.65;;
45688;SDS011;31400;48.132;20.872;2023-06-26T05:58:00;10.90;;;5.25;;
45688;SDS011;31400;48.132;20.872;2023-06-26T06:00:27;14.77;;;4.60;;
45688;SDS011;31400;48.132;20.872;2023-06-26T06:02:53;14.07;;;4.80;;
45688;SDS011;31400;48.132;20.872;2023-06-26T06:07:46;7.93;;;4.63;;
45688;SDS011;31400;48.132;20.872;2023-06-26T06:10:21;11.93;;;5.68;;
45688;SDS011;31400;48.132;20.872;2023-06-26T06:15:13;8.57;;;5.13;;
45688;SDS011;31400;48.132;20.872;2023-06-26T06:20:05;7.68;;;4.70;;
45688;SDS011;31400;48.132;20.872;2023-06-26T06:22:31;8.10;;;4.57;;
45688;SDS011;31400;48.132;20.872;2023-06-26T06:24:57;7.03;;;4.85;;
45688;SDS011;31400;48.132;20.872;2023-06-26T06:27:24;11.02;;;5.43;;
45688;SDS011;31400;48.132;20.872;2023-06-26T06:32:16;8.93;;;4.80;;
45688;SDS011;31400;48.132;20.872;2023-06-26T06:34:42;10.15;;;5.03;;
45688;SDS011;31400;48.132;20.872;2023-06-26T06:39:34;7.43;;;4.32;;
45688;SDS011;31400;48.132;20.872;2023-06-26T06:44:26;7.60;;;4.63;;
45688;SDS011;31400;48.132;20.872;2023-06-26T06:46:52;9.57;;;5.18;;
45688;SDS011;31400;48.132;20.872;2023-06-26T06:51:44;7.15;;;4.35;;
45688;SDS011;31400;48.132;20.872;2023-06-26T06:56:36;10.23;;;5.30;;
45688;SDS011;31400;48.132;20.872;2023-06-26T07:01:28;8.40;;;5.05;;
45688;SDS011;31400;48.132;20.872;2023-06-26T07:06:20;8.32;;;4.97;;
45688;SDS011;31400;48.132;20.872;2023-06-26T07:11:12;8.20;;;5.20;;
45688;SDS011;31400;48.132;20.872;2023-06-26T07:13:38;8.80;;;5.15;;
45688;SDS011;31400;48.132;20.872;2023-06-26T07:18:30;13.02;;;4.53;;
45688;SDS011;31400;48.132;20.872;2023-06-26T07:20:56;8.88;;;4.80;;
45688;SDS011;31400;48.132;20.872;2023-06-26T07:23:22;8.85;;;4.90;;
45688;SDS011;31400;48.132;20.872;2023-06-26T07:25:49;11.68;;;5.75;;
45688;SDS011;31400;48.132;20.872;2023-06-26T07:28:15;6.47;;;4.65;;
45688;SDS011;31400;48.132;20.872;2023-06-26T07:30:41;14.05;;;4.97;;
45688;SDS011;31400;48.132;20.872;2023-06-26T07:33:07;6.57;;;4.90;;
45688;SDS011;31400;48.132;20.872;2023-06-26T07:35:33;7.70;;;4.80;;
45688;SDS011;31400;48.132;20.872;2023-06-26T07:37:59;10.32;;;4.57;;
45688;SDS011;31400;48.132;20.872;2023-06-26T07:40:26;7.57;;;5.35;;
45688;SDS011;31400;48.132;20.872;2023-06-26T07:42:52;7.15;;;4.38;;
45688;SDS011;31400;48.132;20.872;2023-06-26T07:45:19;6.03;;;4.00;;
45688;SDS011;31400;48.132;20.872;2023-06-26T07:47:45;6.90;;;4.50;;
45688;SDS011;31400;48.132;20.872;2023-06-26T07:50:11;6.88;;;4.07;;
45688;SDS011;31400;48.132;20.872;2023-06-26T07:52:37;6.25;;;4.28;;
45688;SDS011;31400;48.132;20.872;2023-06-26T07:55:03;6.78;;;4.15;;
45688;SDS011;31400;48.132;20.872;2023-06-26T07:57:30;6.85;;;4.22;;
45688;SDS011;31400;48.132;20.872;2023-06-26T07:59:57;7.57;;;4.47;;
45688;SDS011;31400;48.132;20.872;2023-06-26T08:02:23;5.70;;;4.03;;
45688;SDS011;31400;48.132;20.872;2023-06-26T08:04:49;8.98;;;4.55;;
45688;SDS011;31400;48.132;20.872;2023-06-26T08:07:15;6.15;;;4.10;;
45688;SDS011;31400;48.132;20.872;2023-06-26T08:09:41;8.98;;;4.40;;
45688;SDS011;31400;48.132;20.872;2023-06-26T08:12:10;6.05;;;3.92;;
45688;SDS011;31400;48.132;20.872;2023-06-26T08:14:36;7.15;;;4.45;;
45688;SDS011;31400;48.132;20.872;2023-06-26T08:17:02;6.70;;;4.20;;
45688;SDS011;31400;48.132;20.872;2023-06-26T08:19:28;8.55;;;4.85;;
45688;SDS011;31400;48.132;20.872;2023-06-26T08:21:54;11.48;;;4.05;;
45688;SDS011;31400;48.132;20.872;2023-06-26T08:24:20;7.10;;;4.15;;
45688;SDS011;31400;48.132;20.872;2023-06-26T08:26:46;5.45;;;4.10;;
45688;SDS011;31400;48.132;20.872;2023-06-26T08:29:13;5.70;;;3.92;;
45688;SDS011;31400;48.132;20.872;2023-06-26T08:31:39;7.10;;;4.18;;
45688;SDS011;31400;48.132;20.872;2023-06-26T08:34:06;9.48;;;3.58;;
45688;SDS011;31400;48.132;20.872;2023-06-26T08:36:32;5.35;;;3.42;;
45688;SDS011;31400;48.132;20.872;2023-06-26T08:38:58;7.85;;;4.28;;
45688;SDS011;31400;48.132;20.872;2023-06-26T08:41:24;8.18;;;3.97;;
45688;SDS011;31400;48.132;20.872;2023-06-26T08:43:50;6.30;;;3.58;;
45688;SDS011;31400;48.132;20.872;2023-06-26T08:46:18;5.45;;;3.85;;
45688;SDS011;31400;48.132;20.872;2023-06-26T08:48:56;9.32;;;4.32;;
45688;SDS011;31400;48.132;20.872;2023-06-26T08:51:27;7.28;;;4.07;;
45688;SDS011;31400;48.132;20.872;2023-06-26T08:56:20;17.50;;;4.22;;
45688;SDS011;31400;48.132;20.872;2023-06-26T08:58:48;5.45;;;3.53;;
45688;SDS011;31400;48.132;20.872;2023-06-26T09:01:14;7.53;;;4.20;;
45688;SDS011;31400;48.132;20.872;2023-06-26T09:03:41;5.28;;;3.70;;
45688;SDS011;31400;48.132;20.872;2023-06-26T09:06:07;10.38;;;3.78;;
45688;SDS011;31400;48.132;20.872;2023-06-26T09:08:34;6.85;;;4.05;;
45688;SDS011;31400;48.132;20.872;2023-06-26T09:11:00;10.20;;;4.10;;
45688;SDS011;31400;48.132;20.872;2023-06-26T09:13:28;7.00;;;4.00;;
45688;SDS011;31400;48.132;20.872;2023-06-26T09:15:54;6.90;;;3.75;;
45688;SDS011;31400;48.132;20.872;2023-06-26T09:18:20;5.88;;;3.65;;
45688;SDS011;31400;48.132;20.872;2023-06-26T09:20:47;7.55;;;4.53;;
45688;SDS011;31400;48.132;20.872;2023-06-26T09:23:13;4.32;;;3.20;;
45688;SDS011;31400;48.132;20.872;2023-06-26T09:25:40;7.30;;;4.47;;
45688;SDS011;31400;48.132;20.872;2023-06-26T09:28:06;5.97;;;4.07;;
45688;SDS011;31400;48.132;20.872;2023-06-26T09:30:32;9.77;;;4.57;;
45688;SDS011;31400;48.132;20.872;2023-06-26T09:33:12;6.45;;;3.92;;
45688;SDS011;31400;48.132;20.872;2023-06-26T09:35:39;5.13;;;4.18;;
45688;SDS011;31400;48.132;20.872;2023-06-26T09:38:07;7.03;;;4.15;;
45688;SDS011;31400;48.132;20.872;2023-06-26T09:40:33;7.93;;;4.45;;
45688;SDS011;31400;48.132;20.872;2023-06-26T09:43:07;5.57;;;3.70;;
45688;SDS011;31400;48.132;20.872;2023-06-26T09:45:33;4.80;;;3.88;;
45688;SDS011;31400;48.132;20.872;2023-06-26T09:48:03;5.63;;;3.58;;
45688;SDS011;31400;48.132;20.872;2023-06-26T09:50:30;5.80;;;3.42;;
45688;SDS011;31400;48.132;20.872;2023-06-26T09:52:59;5.72;;;3.97;;
45688;SDS011;31400;48.132;20.872;2023-06-26T09:55:34;6.38;;;3.83;;
45688;SDS011;31400;48.132;20.872;2023-06-26T09:58:01;5.88;;;3.60;;
45688;SDS011;31400;48.132;20.872;2023-06-26T10:00:29;9.20;;;3.65;;
45688;SDS011;31400;48.132;20.872;2023-06-26T10:02:55;7.72;;;3.50;;
45688;SDS011;31400;48.132;20.872;2023-06-26T10:05:21;7.80;;;3.50;;
45688;SDS011;31400;48.132;20.872;2023-06-26T10:07:47;8.32;;;4.18;;
45688;SDS011;31400;48.132;20.872;2023-06-26T10:10:14;5.25;;;3.72;;
45688;SDS011;31400;48.132;20.872;2023-06-26T10:12:41;5.20;;;3.50;;
45688;SDS011;31400;48.132;20.872;2023-06-26T10:15:09;4.88;;;3.47;;
45688;SDS011;31400;48.132;20.872;2023-06-26T10:17:39;6.30;;;3.75;;
45688;SDS011;31400;48.132;20.872;2023-06-26T10:20:06;6.68;;;4.00;;
45688;SDS011;31400;48.132;20.872;2023-06-26T10:22:39;6.43;;;3.75;;
45688;SDS011;31400;48.132;20.872;2023-06-26T10:25:07;5.90;;;3.65;;
45688;SDS011;31400;48.132;20.872;2023-06-26T10:27:38;4.90;;;3.13;;
45688;SDS011;31400;48.132;20.872;2023-06-26T10:30:06;5.85;;;3.55;;
45688;SDS011;31400;48.132;20.872;2023-06-26T10:32:35;7.75;;;3.83;;
45688;SDS011;31400;48.132;20.872;2023-06-26T10:35:02;5.75;;;3.08;;
45688;SDS011;31400;48.132;20.872;2023-06-26T10:37:41;5.70;;;3.53;;
45688;SDS011;31400;48.132;20.872;2023-06-26T10:40:11;5.10;;;3.42;;
45688;SDS011;31400;48.132;20.872;2023-06-26T10:42:38;6.53;;;3.25;;
45688;SDS011;31400;48.132;20.872;2023-06-26T10:45:13;4.95;;;3.63;;
45688;SDS011;31400;48.132;20.872;2023-06-26T10:47:40;9.23;;;3.58;;
45688;SDS011;31400;48.132;20.872;2023-06-26T10:50:48;13.55;;;3.90;;
45688;SDS011;31400;48.132;20.872;2023-06-26T10:53:08;6.40;;;3.97;;
45688;SDS011;31400;48.132;20.872;2023-06-26T10:55:35;4.43;;;3.30;;
45688;SDS011;31400;48.132;20.872;2023-06-26T10:58:02;4.70;;;3.05;;
45688;SDS011;31400;48.132;20.872;2023-06-26T11:00:28;7.00;;;3.60;;
45688;SDS011;31400;48.132;20.872;2023-06-26T11:02:57;5.72;;;3.40;;
45688;SDS011;31400;48.132;20.872;2023-06-26T11:10:50;9.15;;;3.20;;
45688;SDS011;31400;48.132;20.872;2023-06-26T11:13:17;4.72;;;2.92;;
45688;SDS011;31400;48.132;20.872;2023-06-26T11:15:44;11.48;;;3.13;;
45688;SDS011;31400;48.132;20.872;2023-06-26T11:18:10;6.97;;;3.15;;
45688;SDS011;31400;48.132;20.872;2023-06-26T11:20:37;5.18;;;3.13;;
45688;SDS011;31400;48.132;20.872;2023-06-26T11:23:04;4.68;;;3.05;;
45688;SDS011;31400;48.132;20.872;2023-06-26T11:25:35;4.22;;;2.92;;
45688;SDS011;31400;48.132;20.872;2023-06-26T11:28:02;5.78;;;3.33;;
45688;SDS011;31400;48.132;20.872;2023-06-26T11:30:28;4.47;;;3.30;;
45688;SDS011;31400;48.132;20.872;2023-06-26T11:33:02;4.80;;;3.13;;
45688;SDS011;31400;48.132;20.872;2023-06-26T11:35:31;5.65;;;3.13;;
45688;SDS011;31400;48.132;20.872;2023-06-26T11:37:58;5.20;;;3.25;;
45688;SDS011;31400;48.132;20.872;2023-06-26T11:40:26;6.03;;;3.25;;
45688;SDS011;31400;48.132;20.872;2023-06-26T11:42:52;3.60;;;2.72;;
45688;SDS011;31400;48.132;20.872;2023-06-26T11:45:21;4.10;;;2.42;;
45688;SDS011;31400;48.132;20.872;2023-06-26T11:47:47;4.00;;;2.80;;
45688;SDS011;31400;48.132;20.872;2023-06-26T11:50:15;5.45;;;3.03;;
45688;SDS011;31400;48.132;20.872;2023-06-26T11:52:45;4.07;;;2.95;;
45688;SDS011;31400;48.132;20.872;2023-06-26T11:55:11;4.32;;;2.72;;
45688;SDS011;31400;48.132;20.872;2023-06-26T11:57:37;5.72;;;2.50;;
45688;SDS011;31400;48.132;20.872;2023-06-26T12:00:13;5.95;;;2.90;;
45688;SDS011;31400;48.132;20.872;2023-06-26T12:02:39;6.82;;;3.00;;
45688;SDS011;31400;48.132;20.872;2023-06-26T12:05:06;6.10;;;3.03;;
45688;SDS011;31400;48.132;20.872;2023-06-26T12:07:32;13.30;;;2.72;;
45688;SDS011;31400;48.132;20.872;2023-06-26T12:09:59;4.88;;;3.15;;
45688;SDS011;31400;48.132;20.872;2023-06-26T12:12:25;5.63;;;3.28;;
45688;SDS011;31400;48.132;20.872;2023-06-26T12:14:51;6.72;;;2.80;;
45688;SDS011;31400;48.132;20.872;2023-06-26T12:17:18;19.30;;;3.30;;
45688;SDS011;31400;48.132;20.872;2023-06-26T12:19:48;4.88;;;3.13;;
45688;SDS011;31400;48.132;20.872;2023-06-26T12:22:15;6.30;;;3.00;;
45688;SDS011;31400;48.132;20.872;2023-06-26T12:24:41;8.50;;;2.83;;
45688;SDS011;31400;48.132;20.872;2023-06-26T12:27:08;5.60;;;3.03;;
45688;SDS011;31400;48.132;20.872;2023-06-26T12:29:35;5.43;;;2.83;;
45688;SDS011;31400;48.132;20.872;2023-06-26T12:32:02;4.97;;;2.90;;
45688;SDS011;31400;48.132;20.872;2023-06-26T12:34:29;5.25;;;3.30;;
45688;SDS011;31400;48.132;20.872;2023-06-26T12:37:15;4.15;;;3.30;;
45688;SDS011;31400;48.132;20.872;2023-06-26T12:39:48;4.90;;;3.22;;
45688;SDS011;31400;48.132;20.872;2023-06-26T12:42:15;4.80;;;2.90;;
45688;SDS011;31400;48.132;20.872;2023-06-26T12:44:41;5.50;;;2.90;;
45688;SDS011;31400;48.132;20.872;2023-06-26T12:47:07;6.45;;;3.10;;
45688;SDS011;31400;48.132;20.872;2023-06-26T12:49:38;6.47;;;3.20;;
45688;SDS011;31400;48.132;20.872;2023-06-26T12:52:05;5.70;;;3.40;;
45688;SDS011;31400;48.132;20.872;2023-06-26T12:54:32;4.75;;;3.10;;
45688;SDS011;31400;48.132;20.872;2023-06-26T12:56:59;5.15;;;3.15;;
45688;SDS011;31400;48.132;20.872;2023-06-26T12:59:25;8.35;;;3.38;;
45688;SDS011;31400;48.132;20.872;2023-06-26T13:01:51;4.28;;;2.80;;
45688;SDS011;31400;48.132;20.872;2023-06-26T13:04:17;12.93;;;3.58;;
45688;SDS011;31400;48.132;20.872;2023-06-26T13:06:43;6.95;;;3.53;;
45688;SDS011;31400;48.132;20.872;2023-06-26T13:09:10;5.82;;;3.03;;
45688;SDS011;31400;48.132;20.872;2023-06-26T13:11:36;6.22;;;3.15;;
45688;SDS011;31400;48.132;20.872;2023-06-26T13:14:03;4.55;;;3.20;;
45688;SDS011;31400;48.132;20.872;2023-06-26T13:16:29;5.60;;;3.20;;
45688;SDS011;31400;48.132;20.872;2023-06-26T13:18:55;5.18;;;3.33;;
45688;SDS011;31400;48.132;20.872;2023-06-26T13:21:21;3.58;;;2.65;;
45688;SDS011;31400;48.132;20.872;2023-06-26T13:23:47;4.35;;;3.05;;
45688;SDS011;31400;48.132;20.872;2023-06-26T13:26:13;3.85;;;2.55;;
45688;SDS011;31400;48.132;20.872;2023-06-26T13:28:39;12.52;;;3.35;;
45688;SDS011;31400;48.132;20.872;2023-06-26T13:31:05;6.72;;;3.03;;
45688;SDS011;31400;48.132;20.872;2023-06-26T13:33:31;3.78;;;2.75;;
45688;SDS011;31400;48.132;20.872;2023-06-26T13:35:58;5.90;;;3.28;;
45688;SDS011;31400;48.132;20.872;2023-06-26T13:38:24;7.78;;;3.33;;
45688;SDS011;31400;48.132;20.872;2023-06-26T13:40:53;4.75;;;2.75;;
45688;SDS011;31400;48.132;20.872;2023-06-26T13:43:20;4.43;;;2.58;;
45688;SDS011;31400;48.132;20.872;2023-06-26T13:45:47;3.40;;;2.47;;
45688;SDS011;31400;48.132;20.872;2023-06-26T13:48:13;3.78;;;2.58;;
45688;SDS011;31400;48.132;20.872;2023-06-26T13:50:39;6.38;;;2.75;;
45688;SDS011;31400;48.132;20.872;2023-06-26T13:53:06;10.02;;;2.97;;
45688;SDS011;31400;48.132;20.872;2023-06-26T13:55:32;3.90;;;2.50;;
45688;SDS011;31400;48.132;20.872;2023-06-26T13:57:58;4.70;;;2.97;;
45688;SDS011;31400;48.132;20.872;2023-06-26T14:00:24;5.55;;;2.83;;
45688;SDS011;31400;48.132;20.872;2023-06-26T14:02:51;3.15;;;2.13;;
45688;SDS011;31400;48.132;20.872;2023-06-26T14:05:17;4.43;;;2.80;;
45688;SDS011;31400;48.132;20.872;2023-06-26T14:07:43;5.47;;;3.38;;
45688;SDS011;31400;48.132;20.872;2023-06-26T14:10:10;5.60;;;2.97;;
45688;SDS011;31400;48.132;20.872;2023-06-26T14:12:36;5.70;;;2.90;;
45688;SDS011;31400;48.132;20.872;2023-06-26T14:15:02;5.40;;;2.80;;
45688;SDS011;31400;48.132;20.872;2023-06-26T14:17:28;4.75;;;2.85;;
45688;SDS011;31400;48.132;20.872;2023-06-26T14:19:54;4.05;;;2.25;;
45688;SDS011;31400;48.132;20.872;2023-06-26T14:22:20;4.25;;;3.03;;
45688;SDS011;31400;48.132;20.872;2023-06-26T14:24:47;4.85;;;2.90;;
45688;SDS011;31400;48.132;20.872;2023-06-26T14:27:14;5.20;;;2.65;;
45688;SDS011;31400;48.132;20.872;2023-06-26T14:29:40;3.30;;;2.60;;
45688;SDS011;31400;48.132;20.872;2023-06-26T14:32:06;3.17;;;2.25;;
45688;SDS011;31400;48.132;20.872;2023-06-26T14:34:32;6.85;;;2.95;;
45688;SDS011;31400;48.132;20.872;2023-06-26T14:36:58;3.17;;;2.40;;
45688;SDS011;31400;48.132;20.872;2023-06-26T14:39:25;4.15;;;2.60;;
45688;SDS011;31400;48.132;20.872;2023-06-26T14:41:51;3.53;;;2.55;;
45688;SDS011;31400;48.132;20.872;2023-06-26T14:44:17;5.40;;;2.63;;
45688;SDS011;31400;48.132;20.872;2023-06-26T14:46:43;4.38;;;3.03;;
45688;SDS011;31400;48.132;20.872;2023-06-26T14:49:09;6.20;;;3.17;;
45688;SDS011;31400;48.132;20.872;2023-06-26T14:51:35;5.03;;;2.67;;
45688;SDS011;31400;48.132;20.872;2023-06-26T14:54:03;4.07;;;2.28;;
45688;SDS011;31400;48.132;20.872;2023-06-26T14:56:29;4.57;;;2.92;;
45688;SDS011;31400;48.132;20.872;2023-06-26T14:58:55;5.53;;;3.15;;
45688;SDS011;31400;48.132;20.872;2023-06-26T15:01:21;4.47;;;2.63;;
45688;SDS011;31400;48.132;20.872;2023-06-26T15:03:47;5.00;;;2.70;;
45688;SDS011;31400;48.132;20.872;2023-06-26T15:06:14;4.82;;;3.05;;
45688;SDS011;31400;48.132;20.872;2023-06-26T15:08:40;2.95;;;2.20;;
45688;SDS011;31400;48.132;20.872;2023-06-26T15:11:06;4.18;;;2.65;;
45688;SDS011;31400;48.132;20.872;2023-06-26T15:13:32;3.25;;;2.25;;
45688;SDS011;31400;48.132;20.872;2023-06-26T15:15:58;4.05;;;2.35;;
45688;SDS011;31400;48.132;20.872;2023-06-26T15:18:24;2.92;;;1.95;;
45688;SDS011;31400;48.132;20.872;2023-06-26T15:20:50;4.28;;;2.40;;
45688;SDS011;31400;48.132;20.872;2023-06-26T15:23:16;5.22;;;2.53;;
45688;SDS011;31400;48.132;20.872;2023-06-26T15:25:42;3.55;;;2.40;;
45688;SDS011;31400;48.132;20.872;2023-06-26T15:28:08;8.35;;;2.70;;
45688;SDS011;31400;48.132;20.872;2023-06-26T15:30:34;4.50;;;2.75;;
45688;SDS011;31400;48.132;20.872;2023-06-26T15:33:01;4.25;;;2.78;;
45688;SDS011;31400;48.132;20.872;2023-06-26T15:35:27;7.85;;;3.35;;
45688;SDS011;31400;48.132;20.872;2023-06-26T15:37:53;4.63;;;2.97;;
45688;SDS011;31400;48.132;20.872;2023-06-26T15:40:19;6.30;;;2.60;;
45688;SDS011;31400;48.132;20.872;2023-06-26T15:42:49;5.60;;;3.28;;
45688;SDS011;31400;48.132;20.872;2023-06-26T15:45:15;4.60;;;3.00;;
45688;SDS011;31400;48.132;20.872;2023-06-26T15:47:48;4.68;;;2.80;;
45688;SDS011;31400;48.132;20.872;2023-06-26T15:50:15;3.88;;;2.75;;
45688;SDS011;31400;48.132;20.872;2023-06-26T15:52:41;4.47;;;2.78;;
45688;SDS011;31400;48.132;20.872;2023-06-26T15:55:07;5.00;;;2.97;;
45688;SDS011;31400;48.132;20.872;2023-06-26T15:57:34;4.75;;;2.90;;
45688;SDS011;31400;48.132;20.872;2023-06-26T16:00:01;4.13;;;2.58;;
45688;SDS011;31400;48.132;20.872;2023-06-26T16:02:28;18.38;;;3.15;;
45688;SDS011;31400;48.132;20.872;2023-06-26T16:04:54;4.95;;;2.53;;
45688;SDS011;31400;48.132;20.872;2023-06-26T16:07:20;5.28;;;3.40;;